sensor_id;sensor_type;location;lat;lon;timestamp;temperature;humidity
15288;DHT22;7745;48.708;9.026;2022-12-07T00:01:04;3.50;99.90
15288;DHT22;7745;48.708;9.026;2022-12-07T00:03:31;4.00;99.90
15288;DHT22;7745;48.708;9.026;2022-12-07T00:06:02;3.50;99.90
15288;DHT22;7745;48.708;9.026;2022-12-07T00:08:31;3.50;99.90
15288;DHT22;7745;48.708;9.026;2022-12-07T00:11:02;3.80;99.90
15288;DHT22;7745;48.708;9.026;2022-12-07T00:13:33;3.40;99.90
15288;DHT22;7745;48.708;9.026;2022-12-07T00:16:05;3.40;99.90
15288;DHT22;7745;48.708;9.026;2022-12-07T00:18:35;3.40;99.90
15288;DHT22;7745;48.708;9.026;2022-12-07T00:21:04;3.40;99.90
15288;DHT22;7745;48.708;9.026;2022-12-07T00:23:32;3.90;99.90
15288;DHT22;7745;48.708;9.026;2022-12-07T00:26:04;3.40;99.90
15288;DHT22;7745;48.708;9.026;2022-12-07T00:28:31;3.40;99.90
15288;DHT22;7745;48.708;9.026;2022-12-07T00:31:07;3.40;99.90
15288;DHT22;7745;48.708;9.026;2022-12-07T00:33:37;3.60;99.90
15288;DHT22;7745;48.708;9.026;2022-12-07T00:36:06;3.40;99.90
15288;DHT22;7745;48.708;9.026;2022-12-07T00:38:35;3.30;99.90
15288;DHT22;7745;48.708;9.026;2022-12-07T00:41:05;3.40;99.90
15288;DHT22;7745;48.708;9.026;2022-12-07T00:43:32;3.40;99.90
15288;DHT22;7745;48.708;9.026;2022-12-07T00:46:02;3.40;99.90
15288;DHT22;7745;48.708;9.026;2022-12-07T00:48:42;3.30;99.90
15288;DHT22;7745;48.708;9.026;2022-12-07T00:51:17;3.40;99.90
15288;DHT22;7745;48.708;9.026;2022-12-07T00:53:52;3.40;99.90
15288;DHT22;7745;48.708;9.026;2022-12-07T00:56:26;3.40;99.90
15288;DHT22;7745;48.708;9.026;2022-12-07T00:58:59;3.40;99.90
15288;DHT22;7745;48.708;9.026;2022-12-07T01:01:35;3.20;99.90
15288;DHT22;7745;48.708;9.026;2022-12-07T01:04:04;3.40;99.90
15288;DHT22;7745;48.708;9.026;2022-12-07T01:06:35;3.80;99.90
15288;DHT22;7745;48.708;9.026;2022-12-07T01:09:05;3.50;99.90
15288;DHT22;7745;48.708;9.026;2022-12-07T01:11:38;3.50;99.90
15288;DHT22;7745;48.708;9.026;2022-12-07T01:14:08;3.40;99.90
15288;DHT22;7745;48.708;9.026;2022-12-07T01:16:40;3.50;99.90
15288;DHT22;7745;48.708;9.026;2022-12-07T01:19:13;3.50;99.90
15288;DHT22;7745;48.708;9.026;2022-12-07T01:21:47;3.40;99.90
15288;DHT22;7745;48.708;9.026;2022-12-07T01:24:21;3.40;99.90
15288;DHT22;7745;48.708;9.026;2022-12-07T01:26:51;3.40;99.90
15288;DHT22;7745;48.708;9.026;2022-12-07T01:29:21;3.40;99.90
15288;DHT22;7745;48.708;9.026;2022-12-07T01:31:56;3.70;99.90
15288;DHT22;7745;48.708;9.026;2022-12-07T01:34:30;3.50;99.90
15288;DHT22;7745;48.708;9.026;2022-12-07T01:36:57;3.30;99.90
15288;DHT22;7745;48.708;9.026;2022-12-07T01:39:30;3.30;99.90
15288;DHT22;7745;48.708;9.026;2022-12-07T01:42:01;3.30;99.90
15288;DHT22;7745;48.708;9.026;2022-12-07T01:47:16;3.30;99.90
15288;DHT22;7745;48.708;9.026;2022-12-07T01:49:48;3.40;99.90
15288;DHT22;7745;48.708;9.026;2022-12-07T01:52:20;3.40;99.90
15288;DHT22;7745;48.708;9.026;2022-12-07T01:55:08;3.30;99.90
15288;DHT22;7745;48.708;9.026;2022-12-07T01:57:46;3.70;99.90
15288;DHT22;7745;48.708;9.026;2022-12-07T02:00:21;3.30;99.90
15288;DHT22;7745;48.708;9.026;2022-12-07T02:02:57;3.20;99.90
15288;DHT22;7745;48.708;9.026;2022-12-07T02:05:35;3.20;99.90
15288;DHT22;7745;48.708;9.026;2022-12-07T02:08:12;3.10;99.90
15288;DHT22;7745;48.708;9.026;2022-12-07T02:10:45;3.30;99.90
15288;DHT22;7745;48.708;9.026;2022-12-07T02:13:18;3.20;99.90
15288;DHT22;7745;48.708;9.026;2022-12-07T02:16:21;4.00;99.90
15288;DHT22;7745;48.708;9.026;2022-12-07T02:19:07;3.10;99.90
15288;DHT22;7745;48.708;9.026;2022-12-07T02:21:45;3.10;99.90
15288;DHT22;7745;48.708;9.026;2022-12-07T02:24:40;3.40;99.90
15288;DHT22;7745;48.708;9.026;2022-12-07T02:30:17;2.80;99.90
15288;DHT22;7745;48.708;9.026;2022-12-07T02:32:54;3.10;99.90
15288;DHT22;7745;48.708;9.026;2022-12-07T02:35:28;3.10;99.90
15288;DHT22;7745;48.708;9.026;2022-12-07T02:38:08;3.20;99.90
15288;DHT22;7745;48.708;9.026;2022-12-07T02:40:46;3.20;99.90
15288;DHT22;7745;48.708;9.026;2022-12-07T02:43:23;3.40;99.90
15288;DHT22;7745;48.708;9.026;2022-12-07T02:45:56;3.20;99.90
15288;DHT22;7745;48.708;9.026;2022-12-07T02:48:28;3.70;99.90
15288;DHT22;7745;48.708;9.026;2022-12-07T02:51:01;3.10;99.90
15288;DHT22;7745;48.708;9.026;2022-12-07T02:53:32;3.20;99.90
15288;DHT22;7745;48.708;9.026;2022-12-07T02:56:09;3.10;99.90
15288;DHT22;7745;48.708;9.026;2022-12-07T02:58:50;3.10;99.90
15288;DHT22;7745;48.708;9.026;2022-12-07T03:01:31;3.70;99.90
15288;DHT22;7745;48.708;9.026;2022-12-07T03:04:07;3.20;99.90
15288;DHT22;7745;48.708;9.026;2022-12-07T03:06:43;3.20;99.90
15288;DHT22;7745;48.708;9.026;2022-12-07T03:09:21;3.10;99.90
15288;DHT22;7745;48.708;9.026;2022-12-07T03:12:01;3.10;99.90
15288;DHT22;7745;48.708;9.026;2022-12-07T03:14:36;3.30;99.90
15288;DHT22;7745;48.708;9.026;2022-12-07T03:17:15;3.40;99.90
15288;DHT22;7745;48.708;9.026;2022-12-07T03:19:45;2.80;99.90
15288;DHT22;7745;48.708;9.026;2022-12-07T03:22:16;3.30;99.90
15288;DHT22;7745;48.708;9.026;2022-12-07T03:24:49;3.00;99.90
15288;DHT22;7745;48.708;9.026;2022-12-07T03:27:22;3.50;99.90
15288;DHT22;7745;48.708;9.026;2022-12-07T03:29:58;3.10;99.90
15288;DHT22;7745;48.708;9.026;2022-12-07T03:32:31;3.50;99.90
15288;DHT22;7745;48.708;9.026;2022-12-07T03:35:05;3.30;99.90
15288;DHT22;7745;48.708;9.026;2022-12-07T03:37:39;3.10;99.90
15288;DHT22;7745;48.708;9.026;2022-12-07T03:40:15;3.40;99.90
15288;DHT22;7745;48.708;9.026;2022-12-07T03:42:46;3.20;99.90
15288;DHT22;7745;48.708;9.026;2022-12-07T03:45:37;2.90;99.90
15288;DHT22;7745;48.708;9.026;2022-12-07T03:48:14;3.00;99.90
15288;DHT22;7745;48.708;9.026;2022-12-07T03:50:50;2.60;99.90
15288;DHT22;7745;48.708;9.026;2022-12-07T03:53:26;3.10;99.90
15288;DHT22;7745;48.708;9.026;2022-12-07T03:55:59;3.50;99.90
15288;DHT22;7745;48.708;9.026;2022-12-07T03:58:39;3.00;99.90
15288;DHT22;7745;48.708;9.026;2022-12-07T04:01:08;3.00;99.90
15288;DHT22;7745;48.708;9.026;2022-12-07T04:03:36;3.00;99.90
15288;DHT22;7745;48.708;9.026;2022-12-07T04:06:07;3.00;99.90
15288;DHT22;7745;48.708;9.026;2022-12-07T04:08:39;3.00;99.90
15288;DHT22;7745;48.708;9.026;2022-12-07T04:11:06;3.00;99.90
15288;DHT22;7745;48.708;9.026;2022-12-07T04:13:38;3.00;99.90
15288;DHT22;7745;48.708;9.026;2022-12-07T04:16:22;2.90;99.90
15288;DHT22;7745;48.708;9.026;2022-12-07T04:18:58;3.00;99.90
15288;DHT22;7745;48.708;9.026;2022-12-07T04:21:36;3.00;99.90
15288;DHT22;7745;48.708;9.026;2022-12-07T04:24:07;3.00;99.90
15288;DHT22;7745;48.708;9.026;2022-12-07T04:26:45;3.40;99.90
15288;DHT22;7745;48.708;9.026;2022-12-07T04:29:21;2.90;99.90
15288;DHT22;7745;48.708;9.026;2022-12-07T04:31:55;3.00;99.90
15288;DHT22;7745;48.708;9.026;2022-12-07T04:34:32;3.10;99.90
15288;DHT22;7745;48.708;9.026;2022-12-07T04:37:06;3.00;99.90
15288;DHT22;7745;48.708;9.026;2022-12-07T04:39:37;3.00;99.90
15288;DHT22;7745;48.708;9.026;2022-12-07T04:42:08;3.00;99.90
15288;DHT22;7745;48.708;9.026;2022-12-07T04:44:41;3.00;99.90
15288;DHT22;7745;48.708;9.026;2022-12-07T04:47:11;2.90;99.90
15288;DHT22;7745;48.708;9.026;2022-12-07T04:49:50;2.90;99.90
15288;DHT22;7745;48.708;9.026;2022-12-07T04:52:29;3.00;99.90
15288;DHT22;7745;48.708;9.026;2022-12-07T04:54:59;3.40;99.90
15288;DHT22;7745;48.708;9.026;2022-12-07T04:57:32;3.00;99.90
15288;DHT22;7745;48.708;9.026;2022-12-07T05:00:02;2.90;99.90
15288;DHT22;7745;48.708;9.026;2022-12-07T05:02:38;2.90;99.90
15288;DHT22;7745;48.708;9.026;2022-12-07T05:05:10;2.80;99.90
15288;DHT22;7745;48.708;9.026;2022-12-07T05:07:44;2.90;99.90
15288;DHT22;7745;48.708;9.026;2022-12-07T05:10:23;2.80;99.90
15288;DHT22;7745;48.708;9.026;2022-12-07T05:13:03;2.80;99.90
15288;DHT22;7745;48.708;9.026;2022-12-07T05:15:44;2.90;99.90
15288;DHT22;7745;48.708;9.026;2022-12-07T05:18:19;2.70;99.90
15288;DHT22;7745;48.708;9.026;2022-12-07T05:20:59;2.70;99.90
15288;DHT22;7745;48.708;9.026;2022-12-07T05:23:33;2.90;99.90
15288;DHT22;7745;48.708;9.026;2022-12-07T05:26:02;2.70;99.90
15288;DHT22;7745;48.708;9.026;2022-12-07T05:28:36;2.90;99.90
15288;DHT22;7745;48.708;9.026;2022-12-07T05:31:05;2.60;99.90
15288;DHT22;7745;48.708;9.026;2022-12-07T05:33:36;2.90;99.90
15288;DHT22;7745;48.708;9.026;2022-12-07T05:36:16;2.70;99.90
15288;DHT22;7745;48.708;9.026;2022-12-07T05:39:05;2.40;99.90
15288;DHT22;7745;48.708;9.026;2022-12-07T05:41:34;2.50;99.90
15288;DHT22;7745;48.708;9.026;2022-12-07T05:44:23;2.30;99.90
15288;DHT22;7745;48.708;9.026;2022-12-07T05:47:15;2.00;99.90
15288;DHT22;7745;48.708;9.026;2022-12-07T05:49:48;2.10;99.90
15288;DHT22;7745;48.708;9.026;2022-12-07T05:59:02;1.90;99.90
15288;DHT22;7745;48.708;9.026;2022-12-07T06:04:15;1.80;99.90
15288;DHT22;7745;48.708;9.026;2022-12-07T06:07:05;1.80;99.90
15288;DHT22;7745;48.708;9.026;2022-12-07T06:09:38;1.90;99.90
15288;DHT22;7745;48.708;9.026;2022-12-07T06:15:31;1.70;99.90
15288;DHT22;7745;48.708;9.026;2022-12-07T06:18:42;1.40;99.90
15288;DHT22;7745;48.708;9.026;2022-12-07T06:21:40;1.90;99.90
15288;DHT22;7745;48.708;9.026;2022-12-07T06:24:19;2.00;99.90
15288;DHT22;7745;48.708;9.026;2022-12-07T06:27:08;2.00;99.90
15288;DHT22;7745;48.708;9.026;2022-12-07T06:29:54;2.10;99.90
15288;DHT22;7745;48.708;9.026;2022-12-07T06:36:18;2.10;99.90
15288;DHT22;7745;48.708;9.026;2022-12-07T06:39:10;2.20;99.90
15288;DHT22;7745;48.708;9.026;2022-12-07T06:42:17;2.20;99.90
15288;DHT22;7745;48.708;9.026;2022-12-07T06:45:08;2.30;99.90
15288;DHT22;7745;48.708;9.026;2022-12-07T06:47:57;2.10;99.90
15288;DHT22;7745;48.708;9.026;2022-12-07T06:50:39;2.00;99.90
15288;DHT22;7745;48.708;9.026;2022-12-07T06:53:33;2.20;99.90
15288;DHT22;7745;48.708;9.026;2022-12-07T06:56:22;2.30;99.90
15288;DHT22;7745;48.708;9.026;2022-12-07T06:59:03;2.30;99.90
15288;DHT22;7745;48.708;9.026;2022-12-07T07:02:12;2.80;99.90
15288;DHT22;7745;48.708;9.026;2022-12-07T07:04:49;2.30;99.90
15288;DHT22;7745;48.708;9.026;2022-12-07T07:07:36;2.30;99.90
15288;DHT22;7745;48.708;9.026;2022-12-07T07:10:16;2.30;99.90
15288;DHT22;7745;48.708;9.026;2022-12-07T07:13:09;2.30;99.90
15288;DHT22;7745;48.708;9.026;2022-12-07T07:15:53;2.20;99.90
15288;DHT22;7745;48.708;9.026;2022-12-07T07:18:29;2.20;99.90
15288;DHT22;7745;48.708;9.026;2022-12-07T07:21:24;2.20;99.90
15288;DHT22;7745;48.708;9.026;2022-12-07T07:24:08;2.30;99.90
15288;DHT22;7745;48.708;9.026;2022-12-07T07:26:55;2.30;99.90
15288;DHT22;7745;48.708;9.026;2022-12-07T07:29:27;2.30;99.90
15288;DHT22;7745;48.708;9.026;2022-12-07T07:31:55;2.40;99.90
15288;DHT22;7745;48.708;9.026;2022-12-07T07:34:29;2.60;99.90
15288;DHT22;7745;48.708;9.026;2022-12-07T07:36:58;3.00;99.90
15288;DHT22;7745;48.708;9.026;2022-12-07T07:39:27;2.50;99.90
15288;DHT22;7745;48.708;9.026;2022-12-07T07:41:55;2.30;99.90
15288;DHT22;7745;48.708;9.026;2022-12-07T07:44:22;2.90;99.90
15288;DHT22;7745;48.708;9.026;2022-12-07T07:46:49;2.90;99.90
15288;DHT22;7745;48.708;9.026;2022-12-07T07:49:17;2.90;99.90
15288;DHT22;7745;48.708;9.026;2022-12-07T07:51:48;2.50;99.90
15288;DHT22;7745;48.708;9.026;2022-12-07T07:54:24;2.70;99.90
15288;DHT22;7745;48.708;9.026;2022-12-07T07:56:52;2.60;99.90
15288;DHT22;7745;48.708;9.026;2022-12-07T07:59:21;2.60;99.90
15288;DHT22;7745;48.708;9.026;2022-12-07T08:01:51;2.70;99.90
15288;DHT22;7745;48.708;9.026;2022-12-07T08:04:21;2.60;99.90
15288;DHT22;7745;48.708;9.026;2022-12-07T08:07:35;2.70;99.90
15288;DHT22;7745;48.708;9.026;2022-12-07T08:18:00;3.10;99.90
15288;DHT22;7745;48.708;9.026;2022-12-07T08:26:40;3.00;99.90
15288;DHT22;7745;48.708;9.026;2022-12-07T08:29:50;3.00;99.90
15288;DHT22;7745;48.708;9.026;2022-12-07T08:32:24;3.00;99.90
15288;DHT22;7745;48.708;9.026;2022-12-07T09:05:21;3.40;99.90
15288;DHT22;7745;48.708;9.026;2022-12-07T09:21:39;3.60;99.90
15288;DHT22;7745;48.708;9.026;2022-12-07T09:34:41;3.80;99.90
15288;DHT22;7745;48.708;9.026;2022-12-07T09:40:52;3.90;99.90
15288;DHT22;7745;48.708;9.026;2022-12-07T09:47:00;4.00;99.90
15288;DHT22;7745;48.708;9.026;2022-12-07T09:55:13;4.10;99.90
15288;DHT22;7745;48.708;9.026;2022-12-07T09:56:20;3.70;99.90
15288;DHT22;7745;48.708;9.026;2022-12-07T10:28:43;4.60;99.90
15288;DHT22;7745;48.708;9.026;2022-12-07T10:31:42;4.40;99.90
15288;DHT22;7745;48.708;9.026;2022-12-07T10:34:21;4.50;99.90
15288;DHT22;7745;48.708;9.026;2022-12-07T10:36:53;5.10;99.90
15288;DHT22;7745;48.708;9.026;2022-12-07T10:39:47;4.60;99.90
15288;DHT22;7745;48.708;9.026;2022-12-07T10:46:05;4.80;99.90
15288;DHT22;7745;48.708;9.026;2022-12-07T10:48:47;4.70;99.90
15288;DHT22;7745;48.708;9.026;2022-12-07T10:55:11;4.40;99.90
15288;DHT22;7745;48.708;9.026;2022-12-07T11:01:13;4.80;99.90
15288;DHT22;7745;48.708;9.026;2022-12-07T11:04:23;4.80;99.90
15288;DHT22;7745;48.708;9.026;2022-12-07T11:07:06;4.90;99.90
15288;DHT22;7745;48.708;9.026;2022-12-07T11:13:22;5.00;99.90
15288;DHT22;7745;48.708;9.026;2022-12-07T11:16:26;5.00;99.90
15288;DHT22;7745;48.708;9.026;2022-12-07T11:19:09;5.10;99.90
15288;DHT22;7745;48.708;9.026;2022-12-07T11:21:57;5.20;99.90
15288;DHT22;7745;48.708;9.026;2022-12-07T11:24:35;5.10;99.90
15288;DHT22;7745;48.708;9.026;2022-12-07T11:38:10;5.00;99.90
15288;DHT22;7745;48.708;9.026;2022-12-07T11:44:14;4.90;99.90
15288;DHT22;7745;48.708;9.026;2022-12-07T11:46:53;5.00;99.90
15288;DHT22;7745;48.708;9.026;2022-12-07T11:49:55;5.00;99.90
15288;DHT22;7745;48.708;9.026;2022-12-07T11:53:02;4.80;99.90
15288;DHT22;7745;48.708;9.026;2022-12-07T11:56:24;5.00;99.90
15288;DHT22;7745;48.708;9.026;2022-12-07T11:58:56;5.00;99.90
15288;DHT22;7745;48.708;9.026;2022-12-07T12:05:17;5.00;99.90
15288;DHT22;7745;48.708;9.026;2022-12-07T12:08:09;5.00;99.90
15288;DHT22;7745;48.708;9.026;2022-12-07T12:22:26;5.00;99.90
15288;DHT22;7745;48.708;9.026;2022-12-07T12:24:40;5.00;99.90
15288;DHT22;7745;48.708;9.026;2022-12-07T12:30:49;4.90;99.90
15288;DHT22;7745;48.708;9.026;2022-12-07T12:33:44;4.90;99.90
15288;DHT22;7745;48.708;9.026;2022-12-07T12:36:27;5.00;99.90
15288;DHT22;7745;48.708;9.026;2022-12-07T12:50:31;4.90;99.90
15288;DHT22;7745;48.708;9.026;2022-12-07T12:53:19;4.60;99.90
15288;DHT22;7745;48.708;9.026;2022-12-07T12:56:28;4.90;99.90
15288;DHT22;7745;48.708;9.026;2022-12-07T12:59:24;4.80;99.90
15288;DHT22;7745;48.708;9.026;2022-12-07T13:02:16;4.80;99.90
15288;DHT22;7745;48.708;9.026;2022-12-07T13:05:01;5.00;99.90
15288;DHT22;7745;48.708;9.026;2022-12-07T13:08:00;4.80;99.90
15288;DHT22;7745;48.708;9.026;2022-12-07T13:13:40;4.90;99.90
15288;DHT22;7745;48.708;9.026;2022-12-07T13:16:44;4.70;99.90
15288;DHT22;7745;48.708;9.026;2022-12-07T13:32:39;4.80;99.90
15288;DHT22;7745;48.708;9.026;2022-12-07T13:38:52;4.60;99.90
15288;DHT22;7745;48.708;9.026;2022-12-07T13:41:44;4.70;99.90
15288;DHT22;7745;48.708;9.026;2022-12-07T13:48:08;4.50;99.90
15288;DHT22;7745;48.708;9.026;2022-12-07T13:55:05;4.90;99.90
15288;DHT22;7745;48.708;9.026;2022-12-07T13:59:56;4.40;99.90
15288;DHT22;7745;48.708;9.026;2022-12-07T14:00:57;4.40;99.90
15288;DHT22;7745;48.708;9.026;2022-12-07T14:03:31;4.80;99.90
15288;DHT22;7745;48.708;9.026;2022-12-07T14:06:20;4.40;99.90
15288;DHT22;7745;48.708;9.026;2022-12-07T14:09:22;4.40;99.90
15288;DHT22;7745;48.708;9.026;2022-12-07T14:12:05;4.50;99.90
15288;DHT22;7745;48.708;9.026;2022-12-07T14:14:35;4.10;99.90
15288;DHT22;7745;48.708;9.026;2022-12-07T14:17:16;4.60;99.90
15288;DHT22;7745;48.708;9.026;2022-12-07T14:22:57;4.10;99.90
15288;DHT22;7745;48.708;9.026;2022-12-07T14:25:48;4.30;99.90
15288;DHT22;7745;48.708;9.026;2022-12-07T14:28:34;4.50;99.90
15288;DHT22;7745;48.708;9.026;2022-12-07T14:31:11;4.20;99.90
15288;DHT22;7745;48.708;9.026;2022-12-07T14:33:44;4.20;99.90
15288;DHT22;7745;48.708;9.026;2022-12-07T14:36:19;4.20;99.90
15288;DHT22;7745;48.708;9.026;2022-12-07T14:38:46;4.80;99.90
15288;DHT22;7745;48.708;9.026;2022-12-07T14:41:17;4.50;99.90
15288;DHT22;7745;48.708;9.026;2022-12-07T14:44:17;4.20;99.90
15288;DHT22;7745;48.708;9.026;2022-12-07T14:46:57;4.20;99.90
15288;DHT22;7745;48.708;9.026;2022-12-07T14:49:27;4.20;99.90
15288;DHT22;7745;48.708;9.026;2022-12-07T14:52:01;4.20;99.90
15288;DHT22;7745;48.708;9.026;2022-12-07T14:54:36;4.30;99.90
15288;DHT22;7745;48.708;9.026;2022-12-07T14:57:07;4.40;99.90
15288;DHT22;7745;48.708;9.026;2022-12-07T14:59:55;4.40;99.90
15288;DHT22;7745;48.708;9.026;2022-12-07T15:02:35;4.30;99.90
15288;DHT22;7745;48.708;9.026;2022-12-07T15:05:16;3.80;99.90
15288;DHT22;7745;48.708;9.026;2022-12-07T15:07:50;4.20;99.90
15288;DHT22;7745;48.708;9.026;2022-12-07T15:10:33;4.60;99.90
15288;DHT22;7745;48.708;9.026;2022-12-07T15:13:13;4.20;99.90
15288;DHT22;7745;48.708;9.026;2022-12-07T15:15:57;4.30;99.90
15288;DHT22;7745;48.708;9.026;2022-12-07T15:18:25;4.10;99.90
15288;DHT22;7745;48.708;9.026;2022-12-07T15:21:00;4.20;99.90
15288;DHT22;7745;48.708;9.026;2022-12-07T15:24:02;4.50;99.90
15288;DHT22;7745;48.708;9.026;2022-12-07T15:26:34;4.10;99.90
15288;DHT22;7745;48.708;9.026;2022-12-07T15:29:06;4.10;99.90
15288;DHT22;7745;48.708;9.026;2022-12-07T15:31:41;4.10;99.90
15288;DHT22;7745;48.708;9.026;2022-12-07T15:34:16;3.80;99.90
15288;DHT22;7745;48.708;9.026;2022-12-07T15:36:50;3.70;99.90
15288;DHT22;7745;48.708;9.026;2022-12-07T15:39:27;4.10;99.90
15288;DHT22;7745;48.708;9.026;2022-12-07T15:41:57;3.80;99.90
15288;DHT22;7745;48.708;9.026;2022-12-07T15:44:27;3.90;99.90
15288;DHT22;7745;48.708;9.026;2022-12-07T15:47:38;4.00;99.90
15288;DHT22;7745;48.708;9.026;2022-12-07T15:51:00;3.60;99.90
15288;DHT22;7745;48.708;9.026;2022-12-07T15:54:01;3.60;99.90
15288;DHT22;7745;48.708;9.026;2022-12-07T15:56:35;3.60;99.90
15288;DHT22;7745;48.708;9.026;2022-12-07T15:59:06;3.70;99.90
15288;DHT22;7745;48.708;9.026;2022-12-07T16:01:44;3.70;99.90
15288;DHT22;7745;48.708;9.026;2022-12-07T16:04:11;3.70;99.90
15288;DHT22;7745;48.708;9.026;2022-12-07T16:06:40;3.70;99.90
15288;DHT22;7745;48.708;9.026;2022-12-07T16:09:10;3.80;99.90
15288;DHT22;7745;48.708;9.026;2022-12-07T16:11:42;3.50;99.90
15288;DHT22;7745;48.708;9.026;2022-12-07T16:14:16;3.70;99.90
15288;DHT22;7745;48.708;9.026;2022-12-07T16:16:56;3.60;99.90
15288;DHT22;7745;48.708;9.026;2022-12-07T16:19:25;4.00;99.90
15288;DHT22;7745;48.708;9.026;2022-12-07T16:21:55;3.50;99.90
15288;DHT22;7745;48.708;9.026;2022-12-07T16:24:36;3.80;99.90
15288;DHT22;7745;48.708;9.026;2022-12-07T16:27:11;3.60;99.90
15288;DHT22;7745;48.708;9.026;2022-12-07T16:29:55;3.50;99.90
15288;DHT22;7745;48.708;9.026;2022-12-07T16:32:30;3.40;99.90
15288;DHT22;7745;48.708;9.026;2022-12-07T16:35:09;3.40;99.90
15288;DHT22;7745;48.708;9.026;2022-12-07T16:38:13;3.30;99.90
15288;DHT22;7745;48.708;9.026;2022-12-07T16:44:39;3.20;99.90
15288;DHT22;7745;48.708;9.026;2022-12-07T16:47:31;3.20;99.90
15288;DHT22;7745;48.708;9.026;2022-12-07T16:50:09;3.20;99.90
15288;DHT22;7745;48.708;9.026;2022-12-07T16:52:48;3.20;99.90
15288;DHT22;7745;48.708;9.026;2022-12-07T16:55:18;3.20;99.90
15288;DHT22;7745;48.708;9.026;2022-12-07T16:57:45;3.10;99.90
15288;DHT22;7745;48.708;9.026;2022-12-07T17:00:14;3.50;99.90
15288;DHT22;7745;48.708;9.026;2022-12-07T17:02:41;3.10;99.90
15288;DHT22;7745;48.708;9.026;2022-12-07T17:05:08;3.10;99.90
15288;DHT22;7745;48.708;9.026;2022-12-07T17:07:37;3.20;99.90
15288;DHT22;7745;48.708;9.026;2022-12-07T17:10:05;3.00;99.90
15288;DHT22;7745;48.708;9.026;2022-12-07T17:12:32;3.20;99.90
15288;DHT22;7745;48.708;9.026;2022-12-07T17:14:59;3.10;99.90
15288;DHT22;7745;48.708;9.026;2022-12-07T17:17:45;3.20;99.90
15288;DHT22;7745;48.708;9.026;2022-12-07T17:20:13;3.10;99.90
15288;DHT22;7745;48.708;9.026;2022-12-07T17:22:42;3.60;99.90
15288;DHT22;7745;48.708;9.026;2022-12-07T17:25:09;3.10;99.90
15288;DHT22;7745;48.708;9.026;2022-12-07T17:27:36;3.10;99.90
15288;DHT22;7745;48.708;9.026;2022-12-07T17:30:04;3.10;99.90
15288;DHT22;7745;48.708;9.026;2022-12-07T17:32:31;3.10;99.90
15288;DHT22;7745;48.708;9.026;2022-12-07T17:34:59;3.00;99.90
15288;DHT22;7745;48.708;9.026;2022-12-07T17:37:27;3.00;99.90
15288;DHT22;7745;48.708;9.026;2022-12-07T17:39:53;3.00;99.90
15288;DHT22;7745;48.708;9.026;2022-12-07T17:42:22;2.90;99.90
15288;DHT22;7745;48.708;9.026;2022-12-07T17:45:07;2.90;99.90
15288;DHT22;7745;48.708;9.026;2022-12-07T17:47:34;3.00;99.90
15288;DHT22;7745;48.708;9.026;2022-12-07T17:50:07;3.00;99.90
15288;DHT22;7745;48.708;9.026;2022-12-07T17:52:37;3.00;99.90
15288;DHT22;7745;48.708;9.026;2022-12-07T17:55:18;3.10;99.90
15288;DHT22;7745;48.708;9.026;2022-12-07T17:57:53;3.10;99.90
15288;DHT22;7745;48.708;9.026;2022-12-07T18:00:20;3.10;99.90
15288;DHT22;7745;48.708;9.026;2022-12-07T18:02:50;3.10;99.90
15288;DHT22;7745;48.708;9.026;2022-12-07T18:05:18;3.10;99.90
15288;DHT22;7745;48.708;9.026;2022-12-07T18:07:45;3.50;99.90
15288;DHT22;7745;48.708;9.026;2022-12-07T18:10:12;3.10;99.90
15288;DHT22;7745;48.708;9.026;2022-12-07T18:12:39;3.20;99.90
15288;DHT22;7745;48.708;9.026;2022-12-07T18:15:06;3.20;99.90
15288;DHT22;7745;48.708;9.026;2022-12-07T18:17:33;3.20;99.90
15288;DHT22;7745;48.708;9.026;2022-12-07T18:20:00;3.10;99.90
15288;DHT22;7745;48.708;9.026;2022-12-07T18:22:29;3.50;99.90
15288;DHT22;7745;48.708;9.026;2022-12-07T18:24:56;3.10;99.90
15288;DHT22;7745;48.708;9.026;2022-12-07T18:27:23;3.10;99.90
15288;DHT22;7745;48.708;9.026;2022-12-07T18:29:49;3.30;99.90
15288;DHT22;7745;48.708;9.026;2022-12-07T18:32:18;3.10;99.90
15288;DHT22;7745;48.708;9.026;2022-12-07T18:34:45;3.30;99.90
15288;DHT22;7745;48.708;9.026;2022-12-07T18:37:12;3.00;99.90
15288;DHT22;7745;48.708;9.026;2022-12-07T18:39:40;3.20;99.90
15288;DHT22;7745;48.708;9.026;2022-12-07T18:42:07;3.30;99.90
15288;DHT22;7745;48.708;9.026;2022-12-07T18:44:34;2.90;99.90
15288;DHT22;7745;48.708;9.026;2022-12-07T18:47:01;2.90;99.90
15288;DHT22;7745;48.708;9.026;2022-12-07T18:49:28;3.00;99.90
15288;DHT22;7745;48.708;9.026;2022-12-07T18:51:55;2.80;99.90
15288;DHT22;7745;48.708;9.026;2022-12-07T18:54:21;2.80;99.90
15288;DHT22;7745;48.708;9.026;2022-12-07T18:56:50;2.80;99.90
15288;DHT22;7745;48.708;9.026;2022-12-07T18:59:16;3.20;99.90
15288;DHT22;7745;48.708;9.026;2022-12-07T19:02:16;2.70;99.90
15288;DHT22;7745;48.708;9.026;2022-12-07T19:04:44;2.80;99.90
15288;DHT22;7745;48.708;9.026;2022-12-07T19:07:14;2.80;99.90
15288;DHT22;7745;48.708;9.026;2022-12-07T19:09:41;2.80;99.90
15288;DHT22;7745;48.708;9.026;2022-12-07T19:12:12;2.80;99.90
15288;DHT22;7745;48.708;9.026;2022-12-07T19:14:39;2.90;99.90
15288;DHT22;7745;48.708;9.026;2022-12-07T19:17:08;2.80;99.90
15288;DHT22;7745;48.708;9.026;2022-12-07T19:19:37;2.80;99.90
15288;DHT22;7745;48.708;9.026;2022-12-07T19:22:05;3.30;99.90
15288;DHT22;7745;48.708;9.026;2022-12-07T19:24:32;3.00;99.90
15288;DHT22;7745;48.708;9.026;2022-12-07T19:26:59;2.90;99.90
15288;DHT22;7745;48.708;9.026;2022-12-07T19:29:29;3.10;99.90
15288;DHT22;7745;48.708;9.026;2022-12-07T19:31:56;3.30;99.90
15288;DHT22;7745;48.708;9.026;2022-12-07T19:34:23;2.90;99.90
15288;DHT22;7745;48.708;9.026;2022-12-07T19:36:50;3.30;99.90
15288;DHT22;7745;48.708;9.026;2022-12-07T19:39:17;2.90;99.90
15288;DHT22;7745;48.708;9.026;2022-12-07T19:41:45;2.90;99.90
15288;DHT22;7745;48.708;9.026;2022-12-07T19:44:13;2.90;99.90
15288;DHT22;7745;48.708;9.026;2022-12-07T19:46:44;3.10;99.90
15288;DHT22;7745;48.708;9.026;2022-12-07T19:49:11;2.90;99.90
15288;DHT22;7745;48.708;9.026;2022-12-07T19:51:41;3.00;99.90
15288;DHT22;7745;48.708;9.026;2022-12-07T19:54:09;3.10;99.90
15288;DHT22;7745;48.708;9.026;2022-12-07T19:56:37;3.50;99.90
15288;DHT22;7745;48.708;9.026;2022-12-07T19:59:04;3.50;99.90
15288;DHT22;7745;48.708;9.026;2022-12-07T20:01:32;3.00;99.90
15288;DHT22;7745;48.708;9.026;2022-12-07T20:04:03;3.30;99.90
15288;DHT22;7745;48.708;9.026;2022-12-07T20:06:31;2.90;99.90
15288;DHT22;7745;48.708;9.026;2022-12-07T20:08:58;2.90;99.90
15288;DHT22;7745;48.708;9.026;2022-12-07T20:11:25;2.90;99.90
15288;DHT22;7745;48.708;9.026;2022-12-07T20:14:17;3.00;99.90
15288;DHT22;7745;48.708;9.026;2022-12-07T20:16:45;3.00;99.90
15288;DHT22;7745;48.708;9.026;2022-12-07T20:19:14;3.00;99.90
15288;DHT22;7745;48.708;9.026;2022-12-07T20:21:42;2.90;99.90
15288;DHT22;7745;48.708;9.026;2022-12-07T20:24:10;3.20;99.90
15288;DHT22;7745;48.708;9.026;2022-12-07T20:26:38;2.90;99.90
15288;DHT22;7745;48.708;9.026;2022-12-07T20:29:05;2.90;99.90
15288;DHT22;7745;48.708;9.026;2022-12-07T20:31:33;2.90;99.90
15288;DHT22;7745;48.708;9.026;2022-12-07T20:34:00;2.90;99.90
15288;DHT22;7745;48.708;9.026;2022-12-07T20:36:29;2.90;99.90
15288;DHT22;7745;48.708;9.026;2022-12-07T20:38:59;2.90;99.90
15288;DHT22;7745;48.708;9.026;2022-12-07T20:41:27;2.90;99.90
15288;DHT22;7745;48.708;9.026;2022-12-07T20:44:12;2.80;99.90
15288;DHT22;7745;48.708;9.026;2022-12-07T20:46:39;2.80;99.90